createdAt,value
2022-09-23T00:00:02.878Z,982.88
2022-09-23T00:01:03.170Z,982.88
2022-09-23T00:02:02.996Z,982.90
2022-09-23T00:03:02.991Z,982.60
2022-09-23T00:04:02.991Z,982.79
2022-09-23T00:05:03.154Z,982.93
2022-09-23T00:06:03.235Z,982.87
2022-09-23T00:07:03.345Z,982.79
2022-09-23T00:08:03.343Z,982.90
2022-09-23T00:09:03.389Z,982.82
2022-09-23T00:10:03.649Z,982.74
2022-09-23T00:11:03.651Z,982.85
2022-09-23T00:12:09.306Z,982.71
2022-09-23T00:13:03.751Z,982.87
2022-09-23T00:14:03.773Z,982.82
2022-09-23T00:15:03.852Z,982.96
2022-09-23T00:16:03.867Z,982.85
2022-09-23T00:17:04.052Z,982.87
2022-09-23T00:18:03.013Z,982.82
2022-09-23T00:19:03.167Z,982.82
2022-09-23T00:20:03.236Z,982.71
2022-09-23T00:21:03.200Z,982.82
2022-09-23T00:22:03.174Z,982.99
2022-09-23T00:23:03.198Z,982.68
2022-09-23T00:24:03.332Z,982.74
2022-09-23T00:25:03.294Z,982.84
2022-09-23T00:26:03.458Z,982.71
2022-09-23T00:27:03.390Z,982.84
2022-09-23T00:28:03.441Z,982.74
2022-09-23T00:29:03.536Z,982.74
2022-09-23T00:30:03.556Z,982.82
2022-09-23T00:31:03.895Z,982.71
2022-09-23T00:32:03.676Z,982.68
2022-09-23T00:33:03.777Z,982.74
2022-09-23T00:34:03.683Z,982.87
2022-09-23T00:35:03.789Z,982.62
2022-09-23T00:36:03.794Z,982.79
2022-09-23T00:37:03.115Z,982.65
2022-09-23T00:38:03.088Z,982.81
2022-09-23T00:39:04.830Z,982.71
2022-09-23T00:40:03.492Z,982.81
2022-09-23T00:41:03.560Z,982.79
2022-09-23T00:42:03.562Z,982.68
2022-09-23T00:43:03.551Z,982.62
2022-09-23T00:44:03.523Z,982.54
2022-09-23T00:45:03.649Z,982.81
2022-09-23T00:46:03.746Z,982.74
2022-09-23T00:47:03.664Z,982.62
2022-09-23T00:48:03.650Z,982.62
2022-09-23T00:49:03.695Z,982.68
2022-09-23T00:50:03.766Z,982.65
2022-09-23T00:51:03.767Z,982.68
2022-09-23T00:52:03.673Z,982.71
2022-09-23T00:53:03.763Z,982.62
2022-09-23T00:54:03.843Z,982.48
2022-09-23T00:55:02.898Z,982.54
2022-09-23T00:56:03.005Z,982.65
2022-09-23T00:57:02.916Z,982.59
2022-09-23T00:58:03.056Z,982.65
2022-09-23T00:59:03.141Z,982.57
2022-09-23T01:00:03.369Z,982.54
2022-09-23T01:01:03.595Z,982.42
2022-09-23T01:02:03.648Z,982.40
2022-09-23T01:03:03.461Z,982.54
2022-09-23T01:04:03.565Z,982.59
2022-09-23T01:05:03.477Z,982.48
2022-09-23T01:06:03.507Z,982.54
2022-09-23T01:07:03.478Z,982.48
2022-09-23T01:08:03.584Z,982.48
2022-09-23T01:09:03.716Z,982.54
2022-09-23T01:10:03.719Z,982.48
2022-09-23T01:11:03.644Z,982.51
2022-09-23T01:12:03.738Z,982.54
2022-09-23T01:13:03.701Z,982.45
2022-09-23T01:14:03.704Z,982.51
2022-09-23T01:15:03.878Z,982.40
2022-09-23T01:16:02.982Z,982.54
2022-09-23T01:17:03.182Z,982.48
2022-09-23T01:18:03.572Z,982.48
2022-09-23T01:19:03.623Z,982.51
2022-09-23T01:20:03.665Z,982.54
2022-09-23T01:21:03.649Z,982.43
2022-09-23T01:22:03.785Z,982.43
2022-09-23T01:23:03.762Z,982.34
2022-09-23T01:24:03.719Z,982.40
2022-09-23T01:25:03.798Z,982.40
2022-09-23T01:26:03.787Z,982.34
2022-09-23T01:27:02.962Z,982.23
2022-09-23T01:28:02.927Z,982.26
2022-09-23T01:29:03.841Z,982.29
2022-09-23T01:30:03.017Z,982.26
2022-09-23T01:31:03.164Z,982.26
2022-09-23T01:32:03.882Z,982.26
2022-09-23T01:33:03.802Z,982.26
2022-09-23T01:34:03.927Z,982.32
2022-09-23T01:35:03.011Z,982.35
2022-09-23T01:36:03.083Z,982.20
2022-09-23T01:37:03.145Z,982.26
2022-09-23T01:38:03.716Z,982.21
2022-09-23T01:39:03.759Z,982.35
2022-09-23T01:40:04.006Z,982.38
2022-09-23T01:41:03.774Z,982.32
2022-09-23T01:42:03.918Z,982.27
2022-09-23T01:43:03.830Z,982.18
2022-09-23T01:44:02.979Z,982.30
2022-09-23T01:45:03.042Z,982.18
2022-09-23T01:46:03.150Z,982.27
2022-09-23T01:47:03.203Z,982.21
2022-09-23T01:48:03.401Z,982.30
2022-09-23T01:49:03.346Z,982.27
2022-09-23T01:50:03.503Z,982.30
2022-09-23T01:51:03.543Z,982.16
2022-09-23T01:52:03.653Z,982.30
2022-09-23T01:53:03.659Z,982.27
2022-09-23T01:54:03.742Z,982.16
2022-09-23T01:55:03.886Z,982.13
2022-09-23T01:56:03.832Z,982.08
2022-09-23T01:57:02.933Z,982.11
2022-09-23T01:58:02.907Z,982.22
2022-09-23T01:59:02.930Z,982.16
2022-09-23T02:00:02.985Z,982.11
2022-09-23T02:01:03.316Z,982.08
2022-09-23T02:02:03.153Z,982.05
2022-09-23T02:03:03.059Z,982.20
2022-09-23T02:04:02.955Z,982.17
2022-09-23T02:05:02.967Z,981.97
2022-09-23T02:06:03.026Z,982.06
2022-09-23T02:07:03.017Z,982.17
2022-09-23T02:08:03.008Z,982.09
2022-09-23T02:09:02.951Z,982.20
2022-09-23T02:10:03.046Z,982.31
2022-09-23T02:11:03.067Z,982.06
2022-09-23T02:12:03.056Z,982.09
2022-09-23T02:13:03.068Z,982.18
2022-09-23T02:14:03.189Z,982.12
2022-09-23T02:15:03.214Z,982.04
2022-09-23T02:16:03.212Z,982.09
2022-09-23T02:17:03.369Z,982.04
2022-09-23T02:18:03.315Z,982.15
2022-09-23T02:19:03.299Z,981.98
2022-09-23T02:20:03.386Z,982.12
2022-09-23T02:21:03.461Z,982.10
2022-09-23T02:22:03.467Z,982.10
2022-09-23T02:23:03.545Z,982.13
2022-09-23T02:24:03.567Z,982.18
2022-09-23T02:25:03.747Z,981.96
2022-09-23T02:26:03.751Z,982.02
2022-09-23T02:27:03.837Z,982.07
2022-09-23T02:28:03.775Z,981.99
2022-09-23T02:29:03.805Z,982.07
2022-09-23T02:30:03.835Z,982.08
2022-09-23T02:31:03.865Z,982.08
2022-09-23T02:32:03.915Z,982.02
2022-09-23T02:33:03.883Z,982.13
2022-09-23T02:34:02.966Z,982.25
2022-09-23T02:35:02.895Z,981.99
2022-09-23T02:36:03.905Z,982.11
2022-09-23T02:37:03.820Z,982.14
2022-09-23T02:38:03.005Z,981.97
2022-09-23T02:39:02.998Z,981.94
2022-09-23T02:40:03.355Z,981.91
2022-09-23T02:41:03.090Z,981.94
2022-09-23T02:42:03.217Z,981.91
2022-09-23T02:43:03.218Z,982.05
2022-09-23T02:44:03.366Z,981.83
2022-09-23T02:45:03.344Z,982.06
2022-09-23T02:46:03.414Z,981.86
2022-09-23T02:47:03.264Z,981.92
2022-09-23T02:48:03.228Z,981.97
2022-09-23T02:49:03.209Z,981.95
2022-09-23T02:50:03.245Z,981.89
2022-09-23T02:51:03.337Z,981.89
2022-09-23T02:52:03.264Z,981.86
2022-09-23T02:53:03.237Z,981.89
2022-09-23T02:54:03.216Z,981.95
2022-09-23T02:55:03.352Z,981.86
2022-09-23T02:56:03.357Z,982.01
2022-09-23T02:57:03.522Z,981.89
2022-09-23T02:58:03.407Z,981.84
2022-09-23T02:59:03.456Z,981.81
2022-09-23T03:00:03.373Z,981.95
2022-09-23T03:01:03.585Z,981.95
2022-09-23T03:02:03.647Z,981.78
2022-09-23T03:03:03.547Z,981.84
2022-09-23T03:04:03.621Z,981.81
2022-09-23T03:05:03.614Z,981.84
2022-09-23T03:06:03.763Z,981.79
2022-09-23T03:07:03.665Z,981.70
2022-09-23T03:08:03.701Z,981.90
2022-09-23T03:09:03.652Z,981.82
2022-09-23T03:10:03.764Z,981.82
2022-09-23T03:11:03.738Z,981.76
2022-09-23T03:12:02.946Z,981.82
2022-09-23T03:13:02.963Z,981.79
2022-09-23T03:14:02.974Z,981.82
2022-09-23T03:15:03.033Z,981.71
2022-09-23T03:16:03.192Z,981.71
2022-09-23T03:17:03.200Z,981.68
2022-09-23T03:18:03.181Z,981.71
2022-09-23T03:19:03.300Z,981.76
2022-09-23T03:20:03.357Z,981.65
2022-09-23T03:21:03.410Z,981.62
2022-09-23T03:22:03.507Z,981.82
2022-09-23T03:23:03.526Z,981.71
2022-09-23T03:24:03.539Z,981.63
2022-09-23T03:25:03.740Z,981.83
2022-09-23T03:26:03.726Z,981.74
2022-09-23T03:27:03.848Z,981.74
2022-09-23T03:28:03.817Z,981.55
2022-09-23T03:29:02.872Z,981.71
2022-09-23T03:30:02.972Z,981.63
2022-09-23T03:31:02.962Z,981.69
2022-09-23T03:32:03.195Z,981.60
2022-09-23T03:33:03.134Z,981.74
2022-09-23T03:34:03.118Z,981.58
2022-09-23T03:35:03.103Z,981.61
2022-09-23T03:36:03.104Z,981.56
2022-09-23T03:37:03.070Z,981.50
2022-09-23T03:38:03.122Z,981.50
2022-09-23T03:39:03.051Z,981.61
2022-09-23T03:40:03.025Z,981.53
2022-09-23T03:41:02.991Z,981.48
2022-09-23T03:42:03.095Z,981.72
2022-09-23T03:43:03.539Z,981.53
2022-09-23T03:44:03.595Z,981.53
2022-09-23T03:45:03.620Z,981.54
2022-09-23T03:46:03.752Z,981.54
2022-09-23T03:47:03.688Z,981.56
2022-09-23T03:48:03.830Z,981.54
2022-09-23T03:49:03.786Z,981.56
2022-09-23T03:50:03.805Z,981.51
2022-09-23T03:51:03.856Z,981.54
2022-09-23T03:52:03.785Z,981.56
2022-09-23T03:53:03.947Z,981.56
2022-09-23T03:54:03.045Z,981.59
2022-09-23T03:55:03.107Z,981.61
2022-09-23T03:56:03.114Z,981.56
2022-09-23T03:57:03.150Z,981.54
2022-09-23T03:58:03.124Z,981.35
2022-09-23T03:59:03.168Z,981.37
2022-09-23T04:00:03.200Z,981.54
2022-09-23T04:01:03.364Z,981.51
2022-09-23T04:02:03.314Z,981.49
2022-09-23T04:03:05.303Z,981.43
2022-09-23T04:04:03.231Z,981.49
2022-09-23T04:05:03.235Z,981.38
2022-09-23T04:06:03.361Z,981.32
2022-09-23T04:07:03.328Z,981.32
2022-09-23T04:08:03.495Z,981.43
2022-09-23T04:09:03.502Z,981.35
2022-09-23T04:10:03.593Z,981.41
2022-09-23T04:11:03.582Z,981.43
2022-09-23T04:12:03.687Z,981.38
2022-09-23T04:13:03.606Z,981.29
2022-09-23T04:14:03.691Z,981.21
2022-09-23T04:15:03.724Z,981.35
2022-09-23T04:16:03.830Z,981.46
2022-09-23T04:17:03.932Z,981.29
2022-09-23T04:18:02.916Z,981.21
2022-09-23T04:19:04.936Z,981.24
2022-09-23T04:20:02.955Z,981.10
2022-09-23T04:21:03.026Z,981.15
2022-09-23T04:22:03.131Z,981.10
2022-09-23T04:23:03.268Z,981.27
2022-09-23T04:24:03.874Z,981.13
2022-09-23T04:25:03.305Z,980.99
2022-09-23T04:26:03.403Z,981.01
2022-09-23T04:27:03.414Z,981.13
2022-09-23T04:28:03.402Z,981.07
2022-09-23T04:29:03.527Z,981.07
2022-09-23T04:30:03.441Z,981.04
2022-09-23T04:31:03.676Z,981.02
2022-09-23T04:32:03.712Z,981.10
2022-09-23T04:33:03.668Z,981.05
2022-09-23T04:34:03.585Z,981.19
2022-09-23T04:35:03.465Z,981.02
2022-09-23T04:36:03.436Z,981.07
2022-09-23T04:37:03.579Z,981.05
2022-09-23T04:38:03.524Z,981.08
2022-09-23T04:39:03.617Z,981.16
2022-09-23T04:40:03.807Z,980.91
2022-09-23T04:41:03.818Z,981.02
2022-09-23T04:42:03.767Z,981.08
2022-09-23T04:43:03.884Z,980.99
2022-09-23T04:44:03.762Z,981.08
2022-09-23T04:45:03.854Z,980.91
2022-09-23T04:46:03.886Z,981.02
2022-09-23T04:47:04.047Z,981.13
2022-09-23T04:48:02.913Z,981.14
2022-09-23T04:49:03.183Z,981.16
2022-09-23T04:50:03.151Z,981.02
2022-09-23T04:51:03.063Z,981.19
2022-09-23T04:52:03.098Z,981.08
2022-09-23T04:53:03.081Z,981.11
2022-09-23T04:54:03.145Z,981.08
2022-09-23T04:55:03.096Z,981.08
2022-09-23T04:56:03.151Z,981.14
2022-09-23T04:57:03.252Z,981.05
2022-09-23T04:58:03.161Z,981.17
2022-09-23T04:59:03.643Z,981.11
2022-09-23T05:00:03.750Z,981.14
2022-09-23T05:01:05.842Z,981.05
2022-09-23T05:02:03.149Z,981.14
2022-09-23T05:03:02.954Z,981.25
2022-09-23T05:04:03.073Z,981.03
2022-09-23T05:05:03.066Z,981.05
2022-09-23T05:06:03.133Z,981.11
2022-09-23T05:07:03.937Z,981.11
2022-09-23T05:08:03.176Z,981.14
2022-09-23T05:09:03.452Z,981.22
2022-09-23T05:10:03.288Z,981.14
2022-09-23T05:11:03.201Z,981.14
2022-09-23T05:12:03.207Z,981.17
2022-09-23T05:13:03.275Z,981.20
2022-09-23T05:14:03.514Z,981.14
2022-09-23T05:15:03.445Z,981.25
2022-09-23T05:16:03.509Z,981.20
2022-09-23T05:17:03.668Z,981.20
2022-09-23T05:18:03.680Z,981.17
2022-09-23T05:19:03.615Z,981.14
2022-09-23T05:20:03.656Z,981.20
2022-09-23T05:21:03.553Z,981.11
2022-09-23T05:22:03.528Z,981.11
2022-09-23T05:23:03.711Z,981.11
2022-09-23T05:24:03.713Z,981.20
2022-09-23T05:25:03.797Z,981.03
2022-09-23T05:26:03.915Z,981.14
2022-09-23T05:27:03.891Z,981.14
2022-09-23T05:28:02.982Z,981.08
2022-09-23T05:29:03.154Z,981.03
2022-09-23T05:30:03.048Z,981.14
2022-09-23T05:31:03.323Z,981.19
2022-09-23T05:32:03.387Z,981.14
2022-09-23T05:33:03.245Z,981.08
2022-09-23T05:34:03.266Z,981.14
2022-09-23T05:35:03.193Z,981.05
2022-09-23T05:36:03.343Z,981.05
2022-09-23T05:37:02.982Z,980.99
2022-09-23T05:38:03.090Z,981.02
2022-09-23T05:39:03.296Z,981.02
2022-09-23T05:40:03.247Z,981.02
2022-09-23T05:41:03.206Z,981.16
2022-09-23T05:42:03.468Z,980.93
2022-09-23T05:43:03.409Z,981.04
2022-09-23T05:44:03.395Z,980.93
2022-09-23T05:45:03.612Z,980.98
2022-09-23T05:46:08.629Z,980.94
2022-09-23T05:47:03.878Z,980.94
2022-09-23T05:48:03.682Z,981.05
2022-09-23T05:49:04.274Z,980.98
2022-09-23T05:50:02.985Z,980.89
2022-09-23T05:51:02.987Z,980.86
2022-09-23T05:52:03.063Z,980.88
2022-09-23T05:53:03.247Z,980.93
2022-09-23T05:54:03.262Z,980.81
2022-09-23T05:55:03.167Z,980.88
2022-09-23T05:57:05.455Z,980.95
2022-09-23T05:58:03.191Z,980.86
2022-09-23T05:59:03.517Z,980.97
2022-09-23T06:00:03.462Z,980.91
2022-09-23T06:01:03.382Z,980.96
2022-09-23T06:02:03.492Z,980.92
2022-09-23T06:03:03.560Z,980.89
2022-09-23T06:04:03.483Z,980.85
2022-09-23T06:05:03.460Z,981.02
2022-09-23T06:06:03.460Z,981.04
2022-09-23T06:07:04.137Z,981.06
2022-09-23T06:08:03.437Z,980.86
2022-09-23T06:09:03.505Z,981.17
2022-09-23T06:10:03.481Z,981.08
2022-09-23T06:11:03.611Z,981.24
2022-09-23T06:12:03.721Z,981.18
2022-09-23T06:13:03.883Z,981.26
2022-09-23T06:14:04.092Z,981.15
2022-09-23T06:15:02.905Z,981.20
2022-09-23T06:16:02.953Z,981.31
2022-09-23T06:17:03.113Z,981.30
2022-09-23T06:18:03.095Z,981.33
2022-09-23T06:19:06.667Z,981.27
2022-09-23T06:20:03.188Z,981.26
2022-09-23T06:21:03.278Z,981.40
2022-09-23T06:22:03.185Z,981.45
2022-09-23T06:23:09.298Z,981.51
2022-09-23T06:24:03.600Z,981.41
2022-09-23T06:25:03.462Z,981.50
2022-09-23T06:26:03.465Z,981.55
2022-09-23T06:27:03.647Z,981.52
2022-09-23T06:28:03.626Z,981.55
2022-09-23T06:29:03.742Z,981.76
2022-09-23T06:30:03.947Z,981.76
2022-09-23T06:31:03.942Z,981.70
2022-09-23T06:32:02.971Z,981.81
2022-09-23T06:33:03.035Z,981.78
2022-09-23T06:34:13.606Z,981.86
2022-09-23T06:35:03.158Z,981.86
2022-09-23T06:36:03.984Z,981.83
2022-09-23T06:37:18.458Z,981.79
2022-09-23T06:38:03.069Z,981.82
2022-09-23T06:39:03.118Z,981.96
2022-09-23T06:40:03.414Z,981.99
2022-09-23T06:41:03.315Z,981.87
2022-09-23T06:42:03.300Z,981.95
2022-09-23T06:43:03.428Z,981.89
2022-09-23T06:44:03.571Z,982.01
2022-09-23T06:45:03.446Z,981.97
2022-09-23T06:46:03.710Z,982.00
2022-09-23T06:47:03.801Z,982.03
2022-09-23T06:48:03.748Z,981.97
2022-09-23T06:49:03.876Z,982.02
2022-09-23T06:50:03.026Z,981.99
2022-09-23T06:51:02.998Z,982.02
2022-09-23T06:52:03.033Z,982.19
2022-09-23T06:53:03.098Z,982.01
2022-09-23T06:54:03.215Z,982.07
2022-09-23T06:55:03.100Z,982.01
2022-09-23T06:56:03.230Z,982.12
2022-09-23T06:57:03.295Z,982.01
2022-09-23T06:58:03.272Z,982.06
2022-09-23T06:59:03.388Z,982.09
2022-09-23T07:00:03.567Z,982.09
2022-09-23T07:01:03.597Z,982.18
2022-09-23T07:02:03.950Z,982.12
2022-09-23T07:03:03.869Z,982.15
2022-09-23T07:04:03.814Z,982.12
2022-09-23T07:05:03.853Z,982.29
2022-09-23T07:06:03.326Z,982.21
2022-09-23T07:07:03.324Z,982.18
2022-09-23T07:08:03.542Z,982.29
2022-09-23T07:09:03.532Z,982.23
2022-09-23T07:10:03.488Z,982.14
2022-09-23T07:11:03.575Z,982.17
2022-09-23T07:12:03.697Z,982.26
2022-09-23T07:13:03.714Z,982.11
2022-09-23T07:14:03.794Z,982.23
2022-09-23T07:15:03.869Z,982.34
2022-09-23T07:16:03.882Z,982.25
2022-09-23T07:17:03.887Z,982.25
2022-09-23T07:18:03.868Z,982.19
2022-09-23T07:19:03.111Z,982.36
2022-09-23T07:20:02.925Z,982.25
2022-09-23T07:21:03.140Z,982.30
2022-09-23T07:22:03.086Z,982.27
2022-09-23T07:23:03.133Z,982.42
2022-09-23T07:24:03.095Z,982.33
2022-09-23T07:25:03.178Z,982.27
2022-09-23T07:26:03.178Z,982.33
2022-09-23T07:27:03.229Z,982.24
2022-09-23T07:28:03.303Z,982.35
2022-09-23T07:29:03.229Z,982.30
2022-09-23T07:30:03.415Z,982.33
2022-09-23T07:31:03.487Z,982.27
2022-09-23T07:32:13.948Z,982.35
2022-09-23T07:33:24.674Z,982.30
2022-09-23T07:34:03.523Z,982.35
2022-09-23T07:35:03.607Z,982.35
2022-09-23T07:36:03.578Z,982.27
2022-09-23T07:37:03.692Z,982.35
2022-09-23T07:38:03.781Z,982.29
2022-09-23T07:39:04.031Z,982.32
2022-09-23T07:40:03.967Z,982.32
2022-09-23T07:41:03.932Z,982.40
2022-09-23T07:42:02.931Z,982.37
2022-09-23T07:43:03.046Z,982.37
2022-09-23T07:44:03.133Z,982.52
2022-09-23T07:45:03.192Z,982.46
2022-09-23T07:46:03.471Z,982.37
2022-09-23T07:47:03.340Z,982.40
2022-09-23T07:48:03.321Z,982.34
2022-09-23T07:49:03.480Z,982.28
2022-09-23T07:50:03.431Z,982.34
2022-09-23T07:51:03.498Z,982.43
2022-09-23T07:52:03.412Z,982.40
2022-09-23T07:53:03.506Z,982.34
2022-09-23T07:54:03.515Z,982.39
2022-09-23T07:55:03.412Z,982.34
2022-09-23T07:56:03.443Z,982.42
2022-09-23T07:57:03.507Z,982.39
2022-09-23T07:58:03.494Z,982.30
2022-09-23T07:59:03.612Z,982.24
2022-09-23T08:00:03.567Z,982.44
2022-09-23T08:01:03.602Z,982.41
2022-09-23T08:02:03.922Z,982.35
2022-09-23T08:03:03.861Z,982.26
2022-09-23T08:04:03.778Z,982.32
2022-09-23T08:05:03.723Z,982.35
2022-09-23T08:06:03.849Z,982.26
2022-09-23T08:07:03.969Z,982.29
2022-09-23T08:08:03.904Z,982.40
2022-09-23T08:09:03.121Z,982.29
2022-09-23T08:10:03.195Z,982.32
2022-09-23T08:11:03.187Z,982.20
2022-09-23T08:12:03.691Z,982.29
2022-09-23T08:13:03.735Z,982.29
2022-09-23T08:14:03.779Z,982.37
2022-09-23T08:15:03.467Z,982.17
2022-09-23T08:16:03.649Z,982.34
2022-09-23T08:17:03.618Z,982.34
2022-09-23T08:18:03.617Z,982.34
2022-09-23T08:20:03.723Z,982.25
2022-09-23T08:21:03.811Z,982.28
2022-09-23T08:22:03.878Z,982.31
2022-09-23T08:23:02.918Z,982.25
2022-09-23T08:24:03.442Z,982.36
2022-09-23T08:25:03.269Z,982.30
2022-09-23T08:26:03.211Z,982.30
2022-09-23T08:27:03.246Z,982.30
2022-09-23T08:28:03.681Z,982.21
2022-09-23T08:29:03.695Z,982.18
2022-09-23T08:30:03.860Z,982.24
2022-09-23T08:31:04.060Z,982.21
2022-09-23T08:32:03.928Z,982.24
2022-09-23T08:33:02.914Z,982.32
2022-09-23T08:34:03.104Z,982.23
2022-09-23T08:35:03.358Z,982.29
2022-09-23T08:36:03.476Z,982.26
2022-09-23T08:37:03.594Z,982.17
2022-09-23T08:38:03.780Z,982.06
2022-09-23T08:39:03.792Z,982.14
2022-09-23T08:40:03.893Z,982.08
2022-09-23T08:41:03.750Z,982.28
2022-09-23T08:42:03.786Z,982.25
2022-09-23T08:43:02.975Z,982.14
2022-09-23T08:44:03.123Z,982.16
2022-09-23T08:45:02.974Z,982.16
2022-09-23T08:46:03.164Z,982.08
2022-09-23T08:47:03.097Z,982.16
2022-09-23T08:48:03.036Z,982.13
2022-09-23T08:49:03.064Z,982.19
2022-09-23T08:50:02.980Z,982.16
2022-09-23T08:51:03.047Z,982.10
2022-09-23T08:52:03.120Z,982.10
2022-09-23T08:53:03.123Z,982.01
2022-09-23T08:54:03.398Z,982.07
2022-09-23T08:55:03.311Z,982.07
2022-09-23T08:56:03.648Z,982.07
2022-09-23T08:57:03.550Z,982.10
2022-09-23T08:58:25.529Z,982.07
2022-09-23T08:59:03.933Z,982.13
2022-09-23T09:00:03.860Z,982.07
2022-09-23T09:01:04.010Z,982.07
2022-09-23T09:02:03.895Z,982.04
2022-09-23T09:03:03.866Z,982.10
2022-09-23T09:04:02.986Z,982.10
2022-09-23T09:05:02.998Z,982.04
2022-09-23T09:06:03.081Z,982.09
2022-09-23T09:07:36.039Z,982.06
2022-09-23T09:08:03.156Z,981.92
2022-09-23T09:09:03.521Z,982.06
2022-09-23T09:10:03.247Z,982.00
2022-09-23T09:11:03.348Z,982.06
2022-09-23T09:12:03.714Z,981.97
2022-09-23T09:13:03.798Z,981.94
2022-09-23T09:14:03.822Z,981.99
2022-09-23T09:15:03.008Z,981.96
2022-09-23T09:16:03.163Z,982.02
2022-09-23T09:17:04.138Z,981.96
2022-09-23T09:18:02.948Z,981.96
2022-09-23T09:19:03.256Z,982.01
2022-09-23T09:20:03.110Z,981.93
2022-09-23T09:21:03.259Z,981.92
2022-09-23T09:22:03.211Z,982.01
2022-09-23T09:23:03.218Z,981.98
2022-09-23T09:24:03.359Z,981.89
2022-09-23T09:25:03.387Z,981.95
2022-09-23T09:26:03.553Z,981.95
2022-09-23T09:27:03.577Z,981.89
2022-09-23T09:28:03.697Z,982.06
2022-09-23T09:29:34.674Z,981.95
2022-09-23T09:30:03.510Z,982.12
2022-09-23T09:31:03.584Z,982.03
2022-09-23T09:32:03.579Z,981.92
2022-09-23T09:33:03.750Z,982.00
2022-09-23T09:34:03.682Z,982.03
2022-09-23T09:35:03.737Z,982.11
2022-09-23T09:36:03.816Z,982.00
2022-09-23T09:37:07.744Z,981.91
2022-09-23T09:38:03.775Z,981.91
2022-09-23T09:39:03.912Z,981.97
2022-09-23T09:40:04.068Z,982.02
2022-09-23T09:41:03.960Z,981.94
2022-09-23T09:42:02.993Z,981.96
2022-09-23T09:43:03.015Z,981.93
2022-09-23T09:44:03.085Z,981.93
2022-09-23T09:45:03.035Z,981.93
2022-09-23T09:46:03.072Z,982.11
2022-09-23T09:47:03.361Z,982.08
2022-09-23T09:48:03.204Z,981.97
2022-09-23T09:49:03.376Z,981.99
2022-09-23T09:50:03.182Z,981.85
2022-09-23T09:51:03.205Z,981.88
2022-09-23T09:52:03.216Z,982.02
2022-09-23T09:53:03.249Z,981.99
2022-09-23T09:54:03.245Z,981.85
2022-09-23T09:55:03.283Z,981.85
2022-09-23T09:56:06.065Z,981.76
2022-09-23T09:57:03.244Z,981.90
2022-09-23T09:58:03.326Z,981.81
2022-09-23T09:59:03.413Z,982.07
2022-09-23T10:00:03.497Z,981.93
2022-09-23T10:01:03.611Z,981.96
2022-09-23T10:02:03.565Z,982.04
2022-09-23T10:03:03.606Z,982.13
2022-09-23T10:04:03.705Z,982.07
2022-09-23T10:05:03.697Z,982.13
2022-09-23T10:06:03.755Z,982.13
2022-09-23T10:07:03.726Z,982.13
2022-09-23T10:08:03.699Z,982.19
2022-09-23T10:09:03.801Z,982.19
2022-09-23T10:10:32.197Z,982.19
2022-09-23T10:11:03.796Z,982.22
2022-09-23T10:12:02.924Z,982.19
2022-09-23T10:13:02.906Z,982.22
2022-09-23T10:14:03.074Z,982.10
2022-09-23T10:15:03.136Z,982.30
2022-09-23T10:16:03.085Z,982.36
2022-09-23T10:17:03.142Z,982.25
2022-09-23T10:18:03.127Z,982.16
2022-09-23T10:19:03.324Z,982.34
2022-09-23T10:20:03.266Z,982.25
2022-09-23T10:21:03.390Z,982.31
2022-09-23T10:22:03.306Z,982.13
2022-09-23T10:23:03.516Z,982.28
2022-09-23T10:24:03.645Z,982.31
2022-09-23T10:25:03.770Z,982.22
2022-09-23T10:26:03.736Z,982.16
2022-09-23T10:27:03.819Z,982.25
2022-09-23T10:28:08.349Z,982.08
2022-09-23T10:29:03.922Z,982.22
2022-09-23T10:30:02.820Z,982.11
2022-09-23T10:31:03.069Z,982.19
2022-09-23T10:32:03.081Z,982.19
2022-09-23T10:33:03.175Z,982.19
2022-09-23T10:34:03.253Z,982.24
2022-09-23T10:35:03.384Z,982.27
2022-09-23T10:36:03.416Z,982.15
2022-09-23T10:37:03.588Z,982.15
2022-09-23T10:38:03.640Z,982.15
2022-09-23T10:39:03.711Z,982.18
2022-09-23T10:40:04.055Z,982.21
2022-09-23T10:41:04.031Z,982.15
2022-09-23T10:42:03.803Z,982.21
2022-09-23T10:43:02.932Z,982.33
2022-09-23T10:44:03.154Z,982.30
2022-09-23T10:45:02.902Z,982.30
2022-09-23T10:46:03.015Z,982.21
2022-09-23T10:47:02.967Z,982.39
2022-09-23T10:48:03.194Z,982.36
2022-09-23T10:49:03.259Z,982.27
2022-09-23T10:50:03.303Z,982.36
2022-09-23T10:51:03.391Z,982.30
2022-09-23T10:52:03.570Z,982.30
2022-09-23T10:53:03.608Z,982.32
2022-09-23T10:54:03.734Z,982.24
2022-09-23T10:55:03.584Z,982.35
2022-09-23T10:56:03.581Z,982.29
2022-09-23T10:57:03.577Z,982.24
2022-09-23T10:58:03.622Z,982.18
2022-09-23T10:59:03.591Z,982.29
2022-09-23T11:00:03.699Z,982.17
2022-09-23T11:01:03.948Z,982.20
2022-09-23T11:02:03.843Z,982.14
2022-09-23T11:03:03.931Z,982.23
2022-09-23T11:04:03.390Z,982.20
2022-09-23T11:05:03.210Z,982.31
2022-09-23T11:06:03.087Z,982.08
2022-09-23T11:07:03.220Z,982.29
2022-09-23T11:08:03.209Z,982.26
2022-09-23T11:09:03.152Z,982.26
2022-09-23T11:10:03.038Z,982.32
2022-09-23T11:11:03.247Z,982.29
2022-09-23T11:12:03.258Z,982.12
2022-09-23T11:13:03.201Z,982.15
2022-09-23T11:14:03.269Z,982.00
2022-09-23T11:15:03.285Z,982.18
2022-09-23T11:16:03.766Z,982.12
2022-09-23T11:17:03.914Z,982.06
2022-09-23T11:18:02.896Z,982.00
2022-09-23T11:19:02.842Z,982.00
2022-09-23T11:20:02.899Z,981.97
2022-09-23T11:21:03.008Z,982.03
2022-09-23T11:22:02.981Z,982.12
2022-09-23T11:23:02.989Z,982.06
2022-09-23T11:24:03.266Z,981.97
2022-09-23T11:25:03.249Z,981.85
2022-09-23T11:26:03.409Z,982.03
2022-09-23T11:27:03.496Z,981.82
2022-09-23T11:28:03.449Z,981.96
2022-09-23T11:29:03.439Z,981.96
2022-09-23T11:30:03.369Z,981.99
2022-09-23T11:31:03.526Z,981.90
2022-09-23T11:32:03.434Z,981.84
2022-09-23T11:34:03.514Z,981.87
2022-09-23T11:35:03.397Z,981.84
2022-09-23T11:36:03.495Z,981.87
2022-09-23T11:37:03.452Z,981.81
2022-09-23T11:38:03.549Z,981.87
2022-09-23T11:39:03.679Z,981.95
2022-09-23T11:40:03.865Z,981.98
2022-09-23T11:41:03.969Z,981.99
2022-09-23T11:42:03.039Z,981.87
2022-09-23T11:43:03.121Z,981.93
2022-09-23T11:44:03.211Z,981.93
2022-09-23T11:45:03.173Z,981.96
2022-09-23T11:46:03.392Z,981.88
2022-09-23T11:47:03.311Z,981.91
2022-09-23T11:48:03.273Z,981.82
2022-09-23T11:49:03.394Z,981.91
2022-09-23T11:50:03.452Z,981.91
2022-09-23T11:51:03.486Z,981.91
2022-09-23T11:52:03.706Z,982.03
2022-09-23T11:53:03.828Z,981.80
2022-09-23T11:54:03.845Z,981.85
2022-09-23T11:55:19.142Z,981.88
2022-09-23T11:56:02.955Z,981.85
2022-09-23T11:57:03.220Z,981.77
2022-09-23T11:58:03.538Z,981.80
2022-09-23T11:59:03.481Z,981.77
2022-09-23T12:00:03.262Z,981.68
2022-09-23T12:01:03.320Z,981.71
2022-09-23T12:02:19.854Z,981.74
2022-09-23T12:03:06.532Z,981.77
2022-09-23T12:04:20.173Z,981.74
2022-09-23T12:05:04.106Z,981.65
2022-09-23T12:06:03.750Z,981.60
2022-09-23T12:07:03.946Z,981.68
2022-09-23T12:08:03.112Z,981.55
2022-09-23T12:09:03.118Z,981.55
2022-09-23T12:10:03.159Z,981.57
2022-09-23T12:11:03.101Z,981.46
2022-09-23T12:12:03.224Z,981.56
2022-09-23T12:13:03.369Z,981.40
2022-09-23T12:14:03.585Z,981.49
2022-09-23T12:15:03.340Z,981.43
2022-09-23T12:16:03.323Z,981.34
2022-09-23T12:17:03.628Z,981.37
2022-09-23T12:18:03.704Z,981.37
2022-09-23T12:19:03.636Z,981.43
2022-09-23T12:20:03.759Z,981.49
2022-09-23T12:21:03.787Z,981.43
2022-09-23T12:22:03.757Z,981.43
2022-09-23T12:23:02.905Z,981.55
2022-09-23T12:24:03.022Z,981.57
2022-09-23T12:25:03.292Z,981.46
2022-09-23T12:26:03.216Z,981.52
2022-09-23T12:27:03.017Z,981.49
2022-09-23T12:28:03.055Z,981.43
2022-09-23T12:29:03.286Z,981.29
2022-09-23T12:30:03.288Z,981.35
2022-09-23T12:31:03.245Z,981.26